AAY976 KBGR-KPIE
Flight info
| Callsign | AAY976 |
|---|---|
| Flight time | 3h 37m |
| Altitude | 34000 |
| Route | KAYCC KYLOH NELIE Q75 TEUFL BAAMF DADES1 |
| Aircraft | A320/M-VGDW/C |
Departure
| Time | 2026-05-07 18:34 |
|---|---|
| Airport | Bangor International Airport (KBGR) |
Arrival
| Time | 2026-05-07 22:11 |
|---|---|
| Airport | St. Petersburg Clearwater International Airport (KPIE) |
| Time | Latitude | Longitude | Altitude | Speed | Heading |
|---|---|---|---|---|---|
| 2026-05-07 17:59 | 44.80823 | -68.81914 | 183 ft | 0 kts | 131° |
| 2026-05-07 18:13 | 44.80826 | -68.81918 | 183 ft | 3 kts | 131° |
| 2026-05-07 18:13 | 44.80838 | -68.81938 | 183 ft | 3 kts | 131° |
| 2026-05-07 18:13 | 44.80851 | -68.81957 | 183 ft | 3 kts | 143° |
| 2026-05-07 18:13 | 44.80868 | -68.81967 | 183 ft | 3 kts | 186° |
| 2026-05-07 18:14 | 44.80886 | -68.81958 | 183 ft | 3 kts | 220° |
| 2026-05-07 18:14 | 44.80900 | -68.81941 | 183 ft | 3 kts | 220° |
| 2026-05-07 18:14 | 44.80906 | -68.81934 | 183 ft | 0 kts | 220° |
| 2026-05-07 18:29 | 44.80905 | -68.81936 | 183 ft | 2 kts | 225° |
| 2026-05-07 18:29 | 44.80903 | -68.81963 | 183 ft | 4 kts | 277° |
| 2026-05-07 18:29 | 44.80915 | -68.82016 | 201 ft | 7 kts | 288° |
| 2026-05-07 18:29 | 44.80919 | -68.82091 | 191 ft | 8 kts | 241° |
| 2026-05-07 18:30 | 44.80877 | -68.82160 | 184 ft | 11 kts | 233° |
| 2026-05-07 18:30 | 44.80838 | -68.82265 | 187 ft | 12 kts | 217° |
| 2026-05-07 18:30 | 44.80758 | -68.82227 | 184 ft | 15 kts | 134° |
| 2026-05-07 18:30 | 44.80674 | -68.82105 | 183 ft | 20 kts | 134° |
| 2026-05-07 18:31 | 44.80569 | -68.81955 | 181 ft | 24 kts | 134° |
| 2026-05-07 18:31 | 44.80444 | -68.81776 | 180 ft | 27 kts | 134° |
| 2026-05-07 18:31 | 44.80303 | -68.81570 | 178 ft | 31 kts | 134° |
| 2026-05-07 18:31 | 44.80146 | -68.81343 | 176 ft | 32 kts | 134° |
| 2026-05-07 18:32 | 44.80006 | -68.81140 | 174 ft | 27 kts | 134° |
| 2026-05-07 18:32 | 44.79874 | -68.81002 | 173 ft | 21 kts | 180° |
| 2026-05-07 18:32 | 44.79774 | -68.81098 | 173 ft | 15 kts | 224° |
| 2026-05-07 18:32 | 44.79760 | -68.81117 | 173 ft | 0 kts | 226° |
| 2026-05-07 18:33 | 44.79756 | -68.81123 | 173 ft | 5 kts | 226° |
| 2026-05-07 18:33 | 44.79708 | -68.81244 | 174 ft | 17 kts | 256° |
| 2026-05-07 18:33 | 44.79857 | -68.81536 | 175 ft | 75 kts | 314° |
| 2026-05-07 18:34 | 44.80419 | -68.82348 | 183 ft | 155 kts | 314° |
| 2026-05-07 18:34 | 44.81279 | -68.83587 | 891 ft | 179 kts | 313° |
| 2026-05-07 18:34 | 44.82147 | -68.84754 | 2381 ft | 171 kts | 313° |
| 2026-05-07 18:34 | 44.83042 | -68.85927 | 3386 ft | 180 kts | 314° |
| 2026-05-07 18:35 | 44.83986 | -68.87137 | 4398 ft | 186 kts | 313° |
| 2026-05-07 18:35 | 44.84667 | -68.88646 | 5294 ft | 190 kts | 272° |
| 2026-05-07 18:35 | 44.84294 | -68.90479 | 5946 ft | 211 kts | 234° |
| 2026-05-07 18:35 | 44.83309 | -68.92136 | 6814 ft | 229 kts | 230° |
| 2026-05-07 18:36 | 44.82218 | -68.93871 | 7750 ft | 244 kts | 230° |
| 2026-05-07 18:36 | 44.81063 | -68.95672 | 8731 ft | 257 kts | 230° |
| 2026-05-07 18:36 | 44.79836 | -68.97545 | 9908 ft | 261 kts | 229° |
| 2026-05-07 18:36 | 44.78586 | -68.99441 | 10930 ft | 272 kts | 230° |
| 2026-05-07 18:37 | 44.77249 | -69.01478 | 11619 ft | 292 kts | 230° |
| 2026-05-07 18:37 | 44.75831 | -69.03644 | 12372 ft | 309 kts | 230° |
| 2026-05-07 18:37 | 44.74339 | -69.05929 | 13178 ft | 324 kts | 230° |
| 2026-05-07 18:37 | 44.72792 | -69.08303 | 14015 ft | 332 kts | 230° |
| 2026-05-07 18:38 | 44.71234 | -69.10702 | 15108 ft | 333 kts | 230° |
| 2026-05-07 18:38 | 44.69667 | -69.13118 | 16140 ft | 336 kts | 229° |
| 2026-05-07 18:38 | 44.68089 | -69.15554 | 17141 ft | 339 kts | 229° |
| 2026-05-07 18:38 | 44.66509 | -69.17988 | 18097 ft | 342 kts | 229° |
| 2026-05-07 18:39 | 44.64897 | -69.20463 | 18932 ft | 344 kts | 229° |
| 2026-05-07 18:39 | 44.63269 | -69.22954 | 19727 ft | 348 kts | 229° |
| 2026-05-07 18:39 | 44.61622 | -69.25468 | 20540 ft | 351 kts | 229° |
| 2026-05-07 18:39 | 44.59959 | -69.28005 | 21325 ft | 354 kts | 230° |
| 2026-05-07 18:40 | 44.58283 | -69.30564 | 22107 ft | 358 kts | 230° |
| 2026-05-07 18:40 | 44.56592 | -69.33144 | 22847 ft | 361 kts | 230° |
| 2026-05-07 18:40 | 44.54877 | -69.35759 | 23526 ft | 365 kts | 230° |
| 2026-05-07 18:40 | 44.53151 | -69.38391 | 24156 ft | 367 kts | 230° |
| 2026-05-07 18:41 | 44.51439 | -69.41000 | 24763 ft | 370 kts | 230° |
| 2026-05-07 18:41 | 44.49685 | -69.43670 | 25365 ft | 372 kts | 231° |
| 2026-05-07 18:41 | 44.47921 | -69.46353 | 25958 ft | 375 kts | 231° |
| 2026-05-07 18:41 | 44.46153 | -69.49042 | 26663 ft | 374 kts | 231° |
| 2026-05-07 18:42 | 44.44392 | -69.51713 | 27491 ft | 371 kts | 231° |
| 2026-05-07 18:42 | 44.42674 | -69.54316 | 28343 ft | 367 kts | 231° |
| 2026-05-07 18:42 | 44.40950 | -69.56925 | 29190 ft | 363 kts | 231° |
| 2026-05-07 18:42 | 44.39242 | -69.59511 | 29987 ft | 359 kts | 232° |
| 2026-05-07 18:43 | 44.37547 | -69.62080 | 30620 ft | 358 kts | 232° |
| 2026-05-07 18:43 | 44.35862 | -69.64640 | 31198 ft | 357 kts | 232° |
| 2026-05-07 18:43 | 44.34178 | -69.67194 | 31783 ft | 356 kts | 232° |
| 2026-05-07 18:43 | 44.32498 | -69.69742 | 32330 ft | 356 kts | 232° |
| 2026-05-07 18:44 | 44.30848 | -69.72244 | 32884 ft | 355 kts | 231° |
| 2026-05-07 18:44 | 44.29181 | -69.74766 | 33352 ft | 349 kts | 231° |
| 2026-05-07 18:44 | 44.27546 | -69.77230 | 33580 ft | 345 kts | 231° |
| 2026-05-07 18:44 | 44.25903 | -69.79711 | 33682 ft | 350 kts | 231° |
| 2026-05-07 18:45 | 44.24239 | -69.82223 | 33712 ft | 354 kts | 231° |
| 2026-05-07 18:45 | 44.20897 | -69.87252 | 33731 ft | 352 kts | 231° |
| 2026-05-07 18:46 | 44.17572 | -69.92240 | 33739 ft | 351 kts | 231° |
| 2026-05-07 18:46 | 44.14267 | -69.97192 | 33742 ft | 351 kts | 231° |
| 2026-05-07 18:47 | 44.10943 | -70.02160 | 33755 ft | 350 kts | 231° |
| 2026-05-07 18:47 | 44.07620 | -70.07119 | 33754 ft | 350 kts | 231° |
| 2026-05-07 18:48 | 44.04298 | -70.12070 | 33756 ft | 350 kts | 231° |
| 2026-05-07 18:48 | 44.00981 | -70.17002 | 33749 ft | 348 kts | 231° |
| 2026-05-07 18:49 | 43.97678 | -70.21902 | 33750 ft | 348 kts | 231° |
| 2026-05-07 18:49 | 43.94386 | -70.26783 | 33747 ft | 348 kts | 231° |
| 2026-05-07 18:50 | 43.91082 | -70.31669 | 33758 ft | 346 kts | 231° |
| 2026-05-07 18:50 | 43.87785 | -70.36538 | 33759 ft | 346 kts | 231° |
| 2026-05-07 18:51 | 43.84513 | -70.41361 | 33755 ft | 346 kts | 231° |
| 2026-05-07 18:51 | 43.81219 | -70.46207 | 33757 ft | 345 kts | 231° |
| 2026-05-07 18:52 | 43.77933 | -70.51034 | 33760 ft | 343 kts | 231° |
| 2026-05-07 18:52 | 43.74657 | -70.55840 | 33757 ft | 343 kts | 231° |
| 2026-05-07 18:53 | 43.71369 | -70.60654 | 33764 ft | 344 kts | 231° |
| 2026-05-07 18:53 | 43.68102 | -70.65428 | 33766 ft | 343 kts | 231° |
| 2026-05-07 18:54 | 43.64820 | -70.70218 | 33780 ft | 343 kts | 231° |
| 2026-05-07 18:54 | 43.61529 | -70.75014 | 33783 ft | 344 kts | 231° |
| 2026-05-07 18:55 | 43.58230 | -70.79813 | 33783 ft | 344 kts | 231° |
| 2026-05-07 18:55 | 43.54911 | -70.84510 | 33786 ft | 347 kts | 225° |
| 2026-05-07 18:56 | 43.50843 | -70.88249 | 33782 ft | 354 kts | 219° |
| 2026-05-07 18:56 | 43.46599 | -70.91694 | 33774 ft | 354 kts | 218° |
| 2026-05-07 18:57 | 43.42329 | -70.95052 | 33769 ft | 353 kts | 218° |
| 2026-05-07 18:57 | 43.38062 | -70.98383 | 33774 ft | 353 kts | 218° |
| 2026-05-07 18:58 | 43.33788 | -71.01713 | 33773 ft | 353 kts | 218° |
| 2026-05-07 18:58 | 43.29534 | -71.05022 | 33771 ft | 350 kts | 218° |
| 2026-05-07 18:59 | 43.25287 | -71.08323 | 33771 ft | 351 kts | 219° |
| 2026-05-07 18:59 | 43.21062 | -71.11604 | 33766 ft | 350 kts | 219° |
| 2026-05-07 19:00 | 43.16831 | -71.14884 | 33775 ft | 348 kts | 219° |
| 2026-05-07 19:00 | 43.12603 | -71.18162 | 33779 ft | 349 kts | 219° |
| 2026-05-07 19:01 | 43.08516 | -71.21618 | 33799 ft | 340 kts | 225° |
| 2026-05-07 19:01 | 43.04933 | -71.25727 | 33796 ft | 337 kts | 228° |
| 2026-05-07 19:02 | 43.01460 | -71.30021 | 33794 ft | 336 kts | 229° |
| 2026-05-07 19:02 | 42.98046 | -71.34371 | 33790 ft | 335 kts | 229° |
| 2026-05-07 19:03 | 42.94676 | -71.38735 | 33792 ft | 333 kts | 230° |
| 2026-05-07 19:03 | 42.91332 | -71.43103 | 33793 ft | 332 kts | 230° |
| 2026-05-07 19:04 | 42.88001 | -71.47475 | 33786 ft | 331 kts | 230° |
| 2026-05-07 19:04 | 42.84711 | -71.51796 | 33796 ft | 330 kts | 230° |
| 2026-05-07 19:05 | 42.81399 | -71.56155 | 33800 ft | 331 kts | 230° |
| 2026-05-07 19:05 | 42.78105 | -71.60482 | 33797 ft | 329 kts | 230° |
| 2026-05-07 19:06 | 42.74817 | -71.64797 | 33793 ft | 328 kts | 230° |
| 2026-05-07 19:06 | 42.69870 | -71.71285 | 33808 ft | 327 kts | 230° |
| 2026-05-07 19:07 | 42.66616 | -71.75545 | 33808 ft | 326 kts | 230° |
| 2026-05-07 19:07 | 42.63344 | -71.79820 | 33809 ft | 327 kts | 230° |
| 2026-05-07 19:08 | 42.60068 | -71.84102 | 33809 ft | 327 kts | 230° |
| 2026-05-07 19:08 | 42.56793 | -71.88372 | 33815 ft | 326 kts | 230° |
| 2026-05-07 19:09 | 42.53520 | -71.92631 | 33816 ft | 326 kts | 230° |
| 2026-05-07 19:09 | 42.50244 | -71.96891 | 33822 ft | 327 kts | 230° |
| 2026-05-07 19:10 | 42.46986 | -72.01119 | 33819 ft | 325 kts | 230° |
| 2026-05-07 19:10 | 42.43715 | -72.05352 | 33817 ft | 324 kts | 230° |
| 2026-05-07 19:11 | 42.40446 | -72.09579 | 33816 ft | 325 kts | 230° |
| 2026-05-07 19:11 | 42.37207 | -72.13761 | 33814 ft | 322 kts | 230° |
| 2026-05-07 19:12 | 42.33967 | -72.17940 | 33810 ft | 322 kts | 230° |
| 2026-05-07 19:12 | 42.30723 | -72.22120 | 33815 ft | 322 kts | 230° |
| 2026-05-07 19:13 | 42.27479 | -72.26290 | 33825 ft | 321 kts | 230° |
| 2026-05-07 19:13 | 42.24245 | -72.30438 | 33813 ft | 321 kts | 230° |
| 2026-05-07 19:14 | 42.21008 | -72.34587 | 33811 ft | 321 kts | 230° |
| 2026-05-07 19:14 | 42.17772 | -72.38734 | 33815 ft | 320 kts | 230° |
| 2026-05-07 19:15 | 42.14565 | -72.42830 | 33807 ft | 319 kts | 230° |
| 2026-05-07 19:15 | 42.11340 | -72.46944 | 33806 ft | 319 kts | 230° |
| 2026-05-07 19:16 | 42.08114 | -72.51058 | 33809 ft | 319 kts | 230° |
| 2026-05-07 19:16 | 42.05430 | -72.54476 | 33815 ft | 319 kts | 230° |
| 2026-05-07 19:17 | 42.01677 | -72.59246 | 33857 ft | 319 kts | 230° |
| 2026-05-07 19:17 | 41.98974 | -72.62677 | 33856 ft | 319 kts | 230° |
| 2026-05-07 19:18 | 41.95786 | -72.66759 | 33856 ft | 318 kts | 231° |
| 2026-05-07 19:18 | 41.92643 | -72.70945 | 33856 ft | 318 kts | 231° |
| 2026-05-07 19:19 | 41.89524 | -72.75164 | 33858 ft | 317 kts | 231° |
| 2026-05-07 19:19 | 41.86422 | -72.79386 | 33859 ft | 318 kts | 231° |
| 2026-05-07 19:20 | 41.83332 | -72.83592 | 33850 ft | 318 kts | 231° |
| 2026-05-07 19:20 | 41.80226 | -72.87822 | 33850 ft | 318 kts | 231° |
| 2026-05-07 19:21 | 41.77122 | -72.92045 | 33855 ft | 318 kts | 232° |
| 2026-05-07 19:21 | 41.74016 | -72.96270 | 33865 ft | 317 kts | 231° |
| 2026-05-07 19:22 | 41.70934 | -73.00458 | 33867 ft | 318 kts | 231° |
| 2026-05-07 19:22 | 41.67822 | -73.04677 | 33877 ft | 318 kts | 231° |
| 2026-05-07 19:23 | 41.64705 | -73.08896 | 33876 ft | 319 kts | 231° |
| 2026-05-07 19:23 | 41.61585 | -73.13113 | 33870 ft | 318 kts | 231° |
| 2026-05-07 19:24 | 41.58488 | -73.17293 | 33873 ft | 319 kts | 231° |
| 2026-05-07 19:24 | 41.55369 | -73.21501 | 33868 ft | 318 kts | 231° |
| 2026-05-07 19:25 | 41.52258 | -73.25687 | 33857 ft | 317 kts | 231° |
| 2026-05-07 19:25 | 41.49147 | -73.29883 | 33868 ft | 319 kts | 231° |
| 2026-05-07 19:26 | 41.46038 | -73.34104 | 33869 ft | 317 kts | 231° |
| 2026-05-07 19:26 | 41.42966 | -73.38281 | 33867 ft | 318 kts | 231° |
| 2026-05-07 19:27 | 41.39859 | -73.42514 | 33867 ft | 319 kts | 231° |
| 2026-05-07 19:27 | 41.36762 | -73.46726 | 33871 ft | 317 kts | 231° |
| 2026-05-07 19:28 | 41.33695 | -73.50891 | 33859 ft | 318 kts | 231° |
| 2026-05-07 19:28 | 41.30612 | -73.55117 | 33866 ft | 318 kts | 232° |
| 2026-05-07 19:29 | 41.27678 | -73.59519 | 33865 ft | 317 kts | 234° |
| 2026-05-07 19:29 | 41.24846 | -73.64006 | 33862 ft | 316 kts | 235° |
| 2026-05-07 19:30 | 41.22054 | -73.68538 | 33853 ft | 317 kts | 235° |
| 2026-05-07 19:30 | 41.19286 | -73.73074 | 33848 ft | 316 kts | 235° |
| 2026-05-07 19:31 | 41.16529 | -73.77619 | 33844 ft | 315 kts | 236° |
| 2026-05-07 19:31 | 41.13794 | -73.82185 | 33857 ft | 317 kts | 236° |
| 2026-05-07 19:32 | 41.11074 | -73.86741 | 33855 ft | 316 kts | 236° |
| 2026-05-07 19:32 | 41.08344 | -73.91316 | 33854 ft | 316 kts | 236° |
| 2026-05-07 19:33 | 41.05611 | -73.95898 | 33854 ft | 318 kts | 236° |
| 2026-05-07 19:33 | 41.02868 | -74.00489 | 33861 ft | 317 kts | 236° |
| 2026-05-07 19:34 | 41.00126 | -74.05070 | 33863 ft | 317 kts | 236° |
| 2026-05-07 19:34 | 40.97400 | -74.09622 | 33862 ft | 318 kts | 236° |
| 2026-05-07 19:35 | 40.94648 | -74.14210 | 33859 ft | 318 kts | 236° |
| 2026-05-07 19:35 | 40.91897 | -74.18792 | 33863 ft | 318 kts | 236° |
| 2026-05-07 19:36 | 40.89134 | -74.23382 | 33864 ft | 319 kts | 236° |
| 2026-05-07 19:36 | 40.86390 | -74.27934 | 33870 ft | 318 kts | 236° |
| 2026-05-07 19:37 | 40.83628 | -74.32512 | 33866 ft | 318 kts | 236° |
| 2026-05-07 19:37 | 40.80864 | -74.37085 | 33879 ft | 319 kts | 236° |
| 2026-05-07 19:38 | 40.78088 | -74.41673 | 33880 ft | 320 kts | 236° |
| 2026-05-07 19:38 | 40.75315 | -74.46249 | 33876 ft | 319 kts | 236° |
| 2026-05-07 19:39 | 40.72530 | -74.50837 | 33877 ft | 320 kts | 236° |
| 2026-05-07 19:39 | 40.69760 | -74.55391 | 33850 ft | 319 kts | 236° |
| 2026-05-07 19:40 | 40.66982 | -74.59957 | 33850 ft | 320 kts | 236° |
| 2026-05-07 19:40 | 40.64190 | -74.64538 | 33851 ft | 320 kts | 236° |
| 2026-05-07 19:41 | 40.61423 | -74.69070 | 33847 ft | 319 kts | 236° |
| 2026-05-07 19:41 | 40.58564 | -74.73545 | 33849 ft | 320 kts | 234° |
| 2026-05-07 19:42 | 40.55588 | -74.77931 | 33849 ft | 322 kts | 233° |
| 2026-05-07 19:42 | 40.52566 | -74.82272 | 33852 ft | 322 kts | 233° |
| 2026-05-07 19:43 | 40.49525 | -74.86590 | 33853 ft | 321 kts | 232° |
| 2026-05-07 19:43 | 40.46490 | -74.90880 | 33866 ft | 322 kts | 233° |
| 2026-05-07 19:44 | 40.43429 | -74.95194 | 33868 ft | 322 kts | 232° |
| 2026-05-07 19:44 | 40.40369 | -74.99499 | 33869 ft | 322 kts | 233° |
| 2026-05-07 19:45 | 40.37336 | -75.03755 | 33864 ft | 321 kts | 233° |
| 2026-05-07 19:45 | 40.34277 | -75.08053 | 33862 ft | 323 kts | 232° |
| 2026-05-07 19:46 | 40.31205 | -75.12360 | 33862 ft | 323 kts | 232° |
| 2026-05-07 19:46 | 40.28138 | -75.16652 | 33863 ft | 323 kts | 233° |
| 2026-05-07 19:47 | 40.25064 | -75.20949 | 33862 ft | 323 kts | 233° |
| 2026-05-07 19:47 | 40.22008 | -75.25218 | 33866 ft | 323 kts | 233° |
| 2026-05-07 19:48 | 40.18930 | -75.29510 | 33871 ft | 323 kts | 233° |
| 2026-05-07 19:48 | 40.15851 | -75.33804 | 33873 ft | 324 kts | 233° |
| 2026-05-07 19:49 | 40.12762 | -75.38095 | 33878 ft | 324 kts | 233° |
| 2026-05-07 19:49 | 40.09669 | -75.42386 | 33873 ft | 324 kts | 233° |
| 2026-05-07 19:50 | 40.06602 | -75.46635 | 33877 ft | 323 kts | 233° |
| 2026-05-07 19:50 | 40.03510 | -75.50916 | 33874 ft | 324 kts | 233° |
| 2026-05-07 19:51 | 40.00414 | -75.55198 | 33876 ft | 325 kts | 232° |
| 2026-05-07 19:51 | 39.97316 | -75.59475 | 33874 ft | 324 kts | 233° |
| 2026-05-07 19:52 | 39.94218 | -75.63762 | 33874 ft | 324 kts | 233° |
| 2026-05-07 19:52 | 39.91229 | -75.68160 | 33880 ft | 323 kts | 234° |
| 2026-05-07 19:53 | 39.88352 | -75.72616 | 33871 ft | 322 kts | 236° |
| 2026-05-07 19:53 | 39.85512 | -75.77129 | 33873 ft | 322 kts | 236° |
| 2026-05-07 19:54 | 39.82680 | -75.81653 | 33875 ft | 322 kts | 236° |
| 2026-05-07 19:54 | 39.79873 | -75.86133 | 33879 ft | 321 kts | 236° |
| 2026-05-07 19:55 | 39.77059 | -75.90622 | 33881 ft | 321 kts | 236° |
| 2026-05-07 19:55 | 39.74224 | -75.95136 | 33884 ft | 323 kts | 236° |
| 2026-05-07 19:56 | 39.71380 | -75.99655 | 33884 ft | 323 kts | 236° |
| 2026-05-07 19:56 | 39.68554 | -76.04137 | 33883 ft | 322 kts | 236° |
| 2026-05-07 19:57 | 39.65711 | -76.08641 | 33887 ft | 323 kts | 236° |
| 2026-05-07 19:57 | 39.62860 | -76.13151 | 33888 ft | 323 kts | 236° |
| 2026-05-07 19:58 | 39.59988 | -76.17647 | 33889 ft | 324 kts | 236° |
| 2026-05-07 19:58 | 39.57094 | -76.22127 | 33885 ft | 324 kts | 235° |
| 2026-05-07 19:59 | 39.54195 | -76.26594 | 33886 ft | 324 kts | 235° |
| 2026-05-07 19:59 | 39.51311 | -76.31027 | 33889 ft | 324 kts | 235° |
| 2026-05-07 20:00 | 39.48384 | -76.35475 | 33883 ft | 325 kts | 234° |
| 2026-05-07 20:00 | 39.45295 | -76.39789 | 33900 ft | 327 kts | 233° |
| 2026-05-07 20:01 | 39.42159 | -76.44004 | 33903 ft | 327 kts | 233° |
| 2026-05-07 20:01 | 39.38986 | -76.48203 | 33905 ft | 326 kts | 232° |
| 2026-05-07 20:02 | 39.35796 | -76.52396 | 33906 ft | 327 kts | 232° |
| 2026-05-07 20:02 | 39.32597 | -76.56584 | 33905 ft | 327 kts | 232° |
| 2026-05-07 20:03 | 39.29398 | -76.60759 | 33870 ft | 326 kts | 232° |
| 2026-05-07 20:03 | 39.26198 | -76.64928 | 33854 ft | 326 kts | 232° |
| 2026-05-07 20:04 | 39.23005 | -76.69080 | 33858 ft | 326 kts | 232° |
| 2026-05-07 20:04 | 39.19805 | -76.73236 | 33862 ft | 327 kts | 232° |
| 2026-05-07 20:05 | 39.16607 | -76.77384 | 33857 ft | 327 kts | 232° |
| 2026-05-07 20:05 | 39.14998 | -76.79468 | 33620 ft | 327 kts | 232° |
| 2026-05-07 20:05 | 39.13934 | -76.80847 | 33109 ft | 327 kts | 232° |
| 2026-05-07 20:06 | 39.12310 | -76.82960 | 32515 ft | 336 kts | 232° |
| 2026-05-07 20:06 | 39.10659 | -76.85105 | 32177 ft | 336 kts | 232° |
| 2026-05-07 20:06 | 39.09020 | -76.87219 | 32021 ft | 331 kts | 232° |
| 2026-05-07 20:06 | 39.07396 | -76.89309 | 31930 ft | 330 kts | 232° |
| 2026-05-07 20:07 | 39.04114 | -76.93541 | 32415 ft | 335 kts | 232° |
| 2026-05-07 20:07 | 39.02492 | -76.95626 | 33039 ft | 332 kts | 232° |
| 2026-05-07 20:07 | 39.00838 | -76.97747 | 33606 ft | 331 kts | 232° |
| 2026-05-07 20:08 | 38.99230 | -76.99810 | 34123 ft | 330 kts | 233° |
| 2026-05-07 20:08 | 38.97602 | -77.01902 | 34547 ft | 330 kts | 233° |
| 2026-05-07 20:08 | 38.95980 | -77.03992 | 34944 ft | 331 kts | 233° |
| 2026-05-07 20:08 | 38.94348 | -77.06096 | 35376 ft | 331 kts | 233° |
| 2026-05-07 20:09 | 38.92734 | -77.08169 | 35656 ft | 326 kts | 233° |
| 2026-05-07 20:09 | 38.91129 | -77.10230 | 35783 ft | 327 kts | 233° |
| 2026-05-07 20:10 | 38.86230 | -77.16534 | 35878 ft | 336 kts | 232° |
| 2026-05-07 20:10 | 38.82927 | -77.20759 | 35675 ft | 334 kts | 233° |
| 2026-05-07 20:10 | 38.81284 | -77.22857 | 35051 ft | 332 kts | 233° |
| 2026-05-07 20:11 | 38.79635 | -77.24966 | 34518 ft | 337 kts | 233° |
| 2026-05-07 20:11 | 38.77974 | -77.27092 | 34181 ft | 335 kts | 233° |
| 2026-05-07 20:11 | 38.76338 | -77.29174 | 34022 ft | 328 kts | 233° |
| 2026-05-07 20:12 | 38.73055 | -77.33194 | 33904 ft | 330 kts | 232° |
| 2026-05-07 20:12 | 38.69656 | -77.37215 | 33911 ft | 334 kts | 231° |
| 2026-05-07 20:13 | 38.66213 | -77.41235 | 33908 ft | 335 kts | 231° |
| 2026-05-07 20:13 | 38.62759 | -77.45236 | 33904 ft | 334 kts | 231° |
| 2026-05-07 20:14 | 38.59325 | -77.49203 | 33905 ft | 335 kts | 231° |
| 2026-05-07 20:14 | 38.55859 | -77.53199 | 33900 ft | 336 kts | 231° |
| 2026-05-07 20:15 | 38.52387 | -77.57192 | 33899 ft | 335 kts | 231° |
| 2026-05-07 20:15 | 38.48922 | -77.61172 | 33902 ft | 335 kts | 231° |
| 2026-05-07 20:16 | 38.45447 | -77.65160 | 33903 ft | 336 kts | 231° |
| 2026-05-07 20:16 | 38.41968 | -77.69147 | 33908 ft | 336 kts | 231° |
| 2026-05-07 20:17 | 38.38517 | -77.73094 | 33916 ft | 335 kts | 231° |
| 2026-05-07 20:17 | 38.35046 | -77.77059 | 33923 ft | 335 kts | 231° |
| 2026-05-07 20:18 | 38.31565 | -77.81032 | 33915 ft | 336 kts | 232° |
| 2026-05-07 20:18 | 38.28088 | -77.84994 | 33918 ft | 335 kts | 232° |
| 2026-05-07 20:19 | 38.24623 | -77.88935 | 33917 ft | 334 kts | 232° |
| 2026-05-07 20:19 | 38.21146 | -77.92891 | 33910 ft | 336 kts | 232° |
| 2026-05-07 20:20 | 38.17651 | -77.96862 | 33910 ft | 336 kts | 232° |
| 2026-05-07 20:20 | 38.14166 | -78.00809 | 33911 ft | 335 kts | 232° |
| 2026-05-07 20:21 | 38.10706 | -78.04727 | 33909 ft | 336 kts | 232° |
| 2026-05-07 20:21 | 38.07220 | -78.08672 | 33901 ft | 335 kts | 232° |
| 2026-05-07 20:22 | 38.03712 | -78.12599 | 33911 ft | 337 kts | 231° |
| 2026-05-07 20:22 | 38.00043 | -78.16348 | 33920 ft | 339 kts | 229° |
| 2026-05-07 20:23 | 37.96320 | -78.20001 | 33922 ft | 341 kts | 229° |
| 2026-05-07 20:23 | 37.92547 | -78.23647 | 33928 ft | 340 kts | 229° |
| 2026-05-07 20:24 | 37.88771 | -78.27271 | 33925 ft | 340 kts | 229° |
| 2026-05-07 20:24 | 37.85015 | -78.30861 | 33921 ft | 341 kts | 229° |
| 2026-05-07 20:25 | 37.81220 | -78.34482 | 33921 ft | 342 kts | 229° |
| 2026-05-07 20:25 | 37.77421 | -78.38097 | 33923 ft | 341 kts | 229° |
| 2026-05-07 20:26 | 37.73621 | -78.41709 | 33927 ft | 342 kts | 229° |
| 2026-05-07 20:26 | 37.69808 | -78.45325 | 33920 ft | 342 kts | 229° |
| 2026-05-07 20:27 | 37.66020 | -78.48914 | 33923 ft | 343 kts | 229° |
| 2026-05-07 20:27 | 37.62198 | -78.52528 | 33918 ft | 343 kts | 229° |
| 2026-05-07 20:28 | 37.58374 | -78.56139 | 33918 ft | 343 kts | 229° |
| 2026-05-07 20:28 | 37.54567 | -78.59731 | 33918 ft | 344 kts | 229° |
| 2026-05-07 20:29 | 37.50731 | -78.63347 | 33914 ft | 344 kts | 229° |
| 2026-05-07 20:29 | 37.46893 | -78.66957 | 33914 ft | 344 kts | 229° |
| 2026-05-07 20:30 | 37.43039 | -78.70580 | 33915 ft | 345 kts | 229° |
| 2026-05-07 20:30 | 37.39203 | -78.74181 | 33919 ft | 345 kts | 229° |
| 2026-05-07 20:31 | 37.35352 | -78.77785 | 33917 ft | 344 kts | 229° |
| 2026-05-07 20:31 | 37.31504 | -78.81389 | 33915 ft | 346 kts | 229° |
| 2026-05-07 20:32 | 37.27635 | -78.85010 | 33917 ft | 347 kts | 229° |
| 2026-05-07 20:32 | 37.23764 | -78.88622 | 33924 ft | 346 kts | 229° |
| 2026-05-07 20:33 | 37.19895 | -78.92229 | 33922 ft | 347 kts | 229° |
| 2026-05-07 20:33 | 37.16039 | -78.95824 | 33923 ft | 348 kts | 229° |
| 2026-05-07 20:34 | 37.12147 | -78.99439 | 33913 ft | 347 kts | 229° |
| 2026-05-07 20:34 | 37.08263 | -79.03040 | 33920 ft | 348 kts | 229° |
| 2026-05-07 20:35 | 37.04363 | -79.06657 | 33929 ft | 349 kts | 229° |
| 2026-05-07 20:35 | 37.00464 | -79.10264 | 33919 ft | 348 kts | 229° |
| 2026-05-07 20:36 | 36.96584 | -79.13851 | 33921 ft | 350 kts | 229° |
| 2026-05-07 20:36 | 36.92668 | -79.17469 | 33915 ft | 350 kts | 229° |
| 2026-05-07 20:37 | 36.88745 | -79.21086 | 33916 ft | 350 kts | 229° |
| 2026-05-07 20:37 | 36.84823 | -79.24699 | 33916 ft | 351 kts | 229° |
| 2026-05-07 20:38 | 36.80914 | -79.28297 | 33918 ft | 351 kts | 229° |
| 2026-05-07 20:38 | 36.76978 | -79.31914 | 33920 ft | 352 kts | 229° |
| 2026-05-07 20:39 | 36.73033 | -79.35532 | 33919 ft | 352 kts | 229° |
| 2026-05-07 20:39 | 36.69084 | -79.39152 | 33925 ft | 352 kts | 229° |
| 2026-05-07 20:40 | 36.65126 | -79.42776 | 33924 ft | 353 kts | 229° |
| 2026-05-07 20:40 | 36.61193 | -79.46370 | 33928 ft | 352 kts | 229° |
| 2026-05-07 20:41 | 36.57242 | -79.49974 | 33923 ft | 352 kts | 229° |
| 2026-05-07 20:41 | 36.53280 | -79.53590 | 33921 ft | 353 kts | 229° |
| 2026-05-07 20:42 | 36.49307 | -79.57210 | 33921 ft | 354 kts | 229° |
| 2026-05-07 20:42 | 36.45322 | -79.60833 | 33918 ft | 354 kts | 229° |
| 2026-05-07 20:43 | 36.41341 | -79.64449 | 33915 ft | 355 kts | 229° |
| 2026-05-07 20:43 | 36.37372 | -79.68051 | 33924 ft | 356 kts | 229° |
| 2026-05-07 20:44 | 36.33370 | -79.71679 | 33924 ft | 356 kts | 229° |
| 2026-05-07 20:44 | 36.29365 | -79.75301 | 33918 ft | 356 kts | 229° |
| 2026-05-07 20:45 | 36.25350 | -79.78931 | 33913 ft | 358 kts | 229° |
| 2026-05-07 20:45 | 36.21351 | -79.82538 | 33904 ft | 358 kts | 229° |
| 2026-05-07 20:46 | 36.17317 | -79.86169 | 33914 ft | 358 kts | 229° |
| 2026-05-07 20:46 | 36.13281 | -79.89801 | 33910 ft | 359 kts | 229° |
| 2026-05-07 20:47 | 36.09240 | -79.93435 | 33915 ft | 358 kts | 229° |
| 2026-05-07 20:47 | 36.04933 | -79.96688 | 33909 ft | 374 kts | 220° |
| 2026-05-07 20:48 | 36.00153 | -79.99407 | 33906 ft | 380 kts | 218° |
| 2026-05-07 20:48 | 35.95266 | -80.01985 | 33906 ft | 382 kts | 217° |
| 2026-05-07 20:49 | 35.90345 | -80.04501 | 33894 ft | 383 kts | 217° |
| 2026-05-07 20:49 | 35.85424 | -80.06981 | 33889 ft | 385 kts | 217° |
| 2026-05-07 20:50 | 35.80446 | -80.09466 | 33895 ft | 386 kts | 217° |
| 2026-05-07 20:50 | 35.75466 | -80.11934 | 33897 ft | 385 kts | 217° |
| 2026-05-07 20:51 | 35.70479 | -80.14396 | 33892 ft | 385 kts | 217° |
| 2026-05-07 20:51 | 35.65493 | -80.16853 | 33895 ft | 386 kts | 217° |
| 2026-05-07 20:52 | 35.60531 | -80.19290 | 33861 ft | 385 kts | 216° |
| 2026-05-07 20:52 | 35.55541 | -80.21736 | 33860 ft | 387 kts | 216° |
| 2026-05-07 20:53 | 35.50537 | -80.24189 | 33859 ft | 387 kts | 216° |
| 2026-05-07 20:53 | 35.45535 | -80.26634 | 33863 ft | 386 kts | 216° |
| 2026-05-07 20:54 | 35.41390 | -80.28658 | 33870 ft | 385 kts | 216° |
| 2026-05-07 20:54 | 35.36419 | -80.31082 | 33873 ft | 384 kts | 216° |
| 2026-05-07 20:55 | 35.31432 | -80.33510 | 33858 ft | 384 kts | 215° |
| 2026-05-07 20:55 | 35.26472 | -80.35922 | 33857 ft | 384 kts | 215° |
| 2026-05-07 20:56 | 35.21525 | -80.38326 | 33857 ft | 385 kts | 215° |
| 2026-05-07 20:56 | 35.16532 | -80.40745 | 33851 ft | 385 kts | 215° |
| 2026-05-07 20:57 | 35.11558 | -80.43150 | 33847 ft | 384 kts | 215° |
| 2026-05-07 20:57 | 35.06574 | -80.45561 | 33845 ft | 385 kts | 215° |
| 2026-05-07 20:58 | 35.01590 | -80.47966 | 33842 ft | 385 kts | 215° |
| 2026-05-07 20:58 | 34.96635 | -80.50352 | 33844 ft | 385 kts | 214° |
| 2026-05-07 20:59 | 34.91634 | -80.52760 | 33840 ft | 386 kts | 214° |
| 2026-05-07 20:59 | 34.86637 | -80.55160 | 33847 ft | 385 kts | 214° |
| 2026-05-07 21:00 | 34.81642 | -80.57556 | 33851 ft | 386 kts | 214° |
| 2026-05-07 21:00 | 34.76668 | -80.59943 | 33853 ft | 386 kts | 214° |
| 2026-05-07 21:01 | 34.71665 | -80.62338 | 33853 ft | 386 kts | 214° |
| 2026-05-07 21:01 | 34.66798 | -80.64940 | 33864 ft | 371 kts | 224° |
| 2026-05-07 21:02 | 34.62668 | -80.68591 | 33858 ft | 365 kts | 228° |
| 2026-05-07 21:02 | 34.58746 | -80.72475 | 33856 ft | 362 kts | 230° |
| 2026-05-07 21:03 | 34.54937 | -80.76421 | 33855 ft | 362 kts | 230° |
| 2026-05-07 21:03 | 34.51141 | -80.80444 | 33855 ft | 362 kts | 231° |
| 2026-05-07 21:04 | 34.47364 | -80.84483 | 33858 ft | 362 kts | 231° |
| 2026-05-07 21:04 | 34.43592 | -80.88537 | 33867 ft | 363 kts | 231° |
| 2026-05-07 21:05 | 34.39816 | -80.92601 | 33864 ft | 364 kts | 231° |
| 2026-05-07 21:05 | 34.36056 | -80.96639 | 33866 ft | 363 kts | 231° |
| 2026-05-07 21:06 | 34.31911 | -81.00298 | 33881 ft | 384 kts | 217° |
| 2026-05-07 21:06 | 34.26900 | -81.02822 | 33877 ft | 392 kts | 213° |
| 2026-05-07 21:07 | 34.21769 | -81.05075 | 33867 ft | 393 kts | 212° |
| 2026-05-07 21:07 | 34.16569 | -81.07233 | 33873 ft | 396 kts | 211° |
| 2026-05-07 21:08 | 34.11321 | -81.09341 | 33878 ft | 397 kts | 211° |
| 2026-05-07 21:08 | 34.06103 | -81.11394 | 33862 ft | 397 kts | 211° |
| 2026-05-07 21:09 | 34.00828 | -81.13453 | 33862 ft | 399 kts | 210° |
| 2026-05-07 21:09 | 33.95522 | -81.15509 | 33857 ft | 400 kts | 210° |
| 2026-05-07 21:10 | 33.90230 | -81.17543 | 33862 ft | 399 kts | 210° |
| 2026-05-07 21:10 | 33.84963 | -81.19563 | 33871 ft | 401 kts | 210° |
| 2026-05-07 21:11 | 33.79638 | -81.21600 | 33868 ft | 401 kts | 210° |
| 2026-05-07 21:11 | 33.71676 | -81.24635 | 33866 ft | 400 kts | 210° |
| 2026-05-07 21:12 | 33.66359 | -81.26660 | 33862 ft | 401 kts | 209° |
| 2026-05-07 21:12 | 33.61029 | -81.28686 | 33859 ft | 402 kts | 209° |
| 2026-05-07 21:13 | 33.55689 | -81.30712 | 33859 ft | 403 kts | 209° |
| 2026-05-07 21:13 | 33.50366 | -81.32731 | 33865 ft | 404 kts | 209° |
| 2026-05-07 21:14 | 33.44999 | -81.34762 | 33888 ft | 404 kts | 209° |
| 2026-05-07 21:14 | 33.39632 | -81.36791 | 33895 ft | 405 kts | 209° |
| 2026-05-07 21:15 | 33.34256 | -81.38824 | 33900 ft | 405 kts | 209° |
| 2026-05-07 21:15 | 33.28899 | -81.40899 | 33903 ft | 404 kts | 210° |
| 2026-05-07 21:16 | 33.23623 | -81.43085 | 33910 ft | 403 kts | 211° |
| 2026-05-07 21:16 | 33.18319 | -81.45336 | 33903 ft | 404 kts | 211° |
| 2026-05-07 21:17 | 33.13022 | -81.47599 | 33897 ft | 404 kts | 211° |
| 2026-05-07 21:17 | 33.07723 | -81.49864 | 33895 ft | 405 kts | 211° |
| 2026-05-07 21:18 | 33.02411 | -81.52140 | 33894 ft | 406 kts | 211° |
| 2026-05-07 21:18 | 32.97121 | -81.54401 | 33893 ft | 406 kts | 210° |
| 2026-05-07 21:19 | 32.91819 | -81.56694 | 33891 ft | 404 kts | 211° |
| 2026-05-07 21:19 | 32.86551 | -81.59048 | 33904 ft | 405 kts | 211° |
| 2026-05-07 21:20 | 32.81274 | -81.61427 | 33912 ft | 405 kts | 211° |
| 2026-05-07 21:20 | 32.76006 | -81.63806 | 33919 ft | 405 kts | 211° |
| 2026-05-07 21:21 | 32.70718 | -81.66198 | 33919 ft | 407 kts | 210° |
| 2026-05-07 21:21 | 32.65445 | -81.68580 | 33920 ft | 408 kts | 210° |
| 2026-05-07 21:22 | 32.60130 | -81.70975 | 33919 ft | 408 kts | 210° |
| 2026-05-07 21:22 | 32.54808 | -81.73373 | 33887 ft | 410 kts | 210° |
| 2026-05-07 21:23 | 32.49456 | -81.75777 | 33886 ft | 411 kts | 210° |
| 2026-05-07 21:23 | 32.44109 | -81.78173 | 33889 ft | 411 kts | 209° |
| 2026-05-07 21:24 | 32.38749 | -81.80571 | 33886 ft | 412 kts | 209° |
| 2026-05-07 21:24 | 32.33411 | -81.82959 | 33907 ft | 413 kts | 209° |
| 2026-05-07 21:25 | 32.28022 | -81.85367 | 33910 ft | 413 kts | 209° |
| 2026-05-07 21:25 | 32.22631 | -81.87773 | 33920 ft | 415 kts | 209° |
| 2026-05-07 21:26 | 32.17214 | -81.90173 | 33925 ft | 417 kts | 208° |
| 2026-05-07 21:26 | 32.11716 | -81.92391 | 33923 ft | 418 kts | 207° |
| 2026-05-07 21:27 | 32.06178 | -81.94510 | 33923 ft | 419 kts | 206° |
| 2026-05-07 21:27 | 32.00651 | -81.96587 | 33930 ft | 421 kts | 206° |
| 2026-05-07 21:28 | 31.95069 | -81.98669 | 33930 ft | 420 kts | 206° |
| 2026-05-07 21:28 | 31.89488 | -82.00712 | 33930 ft | 422 kts | 204° |
| 2026-05-07 21:29 | 31.83745 | -82.02404 | 33928 ft | 428 kts | 202° |
| 2026-05-07 21:29 | 31.77921 | -82.03952 | 33939 ft | 430 kts | 201° |
| 2026-05-07 21:30 | 31.72075 | -82.05457 | 33944 ft | 430 kts | 201° |
| 2026-05-07 21:30 | 31.66223 | -82.06946 | 33947 ft | 431 kts | 201° |
| 2026-05-07 21:31 | 31.60345 | -82.08437 | 33952 ft | 433 kts | 201° |
| 2026-05-07 21:31 | 31.54444 | -82.09928 | 33951 ft | 433 kts | 201° |
| 2026-05-07 21:32 | 31.48581 | -82.11407 | 33955 ft | 434 kts | 201° |
| 2026-05-07 21:32 | 31.42654 | -82.12898 | 33954 ft | 436 kts | 201° |
| 2026-05-07 21:33 | 31.36710 | -82.14392 | 33952 ft | 436 kts | 200° |
| 2026-05-07 21:33 | 31.30765 | -82.15882 | 33947 ft | 437 kts | 200° |
| 2026-05-07 21:34 | 31.24806 | -82.17375 | 33954 ft | 439 kts | 200° |
| 2026-05-07 21:34 | 31.18818 | -82.18874 | 33951 ft | 440 kts | 200° |
| 2026-05-07 21:35 | 31.12827 | -82.20372 | 33966 ft | 441 kts | 200° |
| 2026-05-07 21:35 | 31.06817 | -82.21870 | 33980 ft | 442 kts | 200° |
| 2026-05-07 21:36 | 31.00826 | -82.23363 | 34007 ft | 444 kts | 200° |
| 2026-05-07 21:36 | 30.94791 | -82.24859 | 34039 ft | 442 kts | 200° |
| 2026-05-07 21:37 | 30.88772 | -82.26348 | 34061 ft | 443 kts | 200° |
| 2026-05-07 21:37 | 30.82731 | -82.27846 | 34071 ft | 444 kts | 200° |
| 2026-05-07 21:38 | 30.76681 | -82.29343 | 34076 ft | 444 kts | 200° |
| 2026-05-07 21:38 | 30.70678 | -82.30821 | 34082 ft | 445 kts | 199° |
| 2026-05-07 21:39 | 30.64512 | -82.31919 | 34099 ft | 450 kts | 196° |
| 2026-05-07 21:39 | 30.58290 | -82.32787 | 34102 ft | 451 kts | 195° |
| 2026-05-07 21:40 | 30.52042 | -82.33592 | 34096 ft | 451 kts | 195° |
| 2026-05-07 21:40 | 30.45833 | -82.34373 | 34078 ft | 452 kts | 195° |
| 2026-05-07 21:41 | 30.39569 | -82.35153 | 34047 ft | 453 kts | 195° |
| 2026-05-07 21:41 | 30.34365 | -82.35799 | 34022 ft | 452 kts | 195° |
| 2026-05-07 21:42 | 30.28120 | -82.36576 | 34001 ft | 451 kts | 195° |
| 2026-05-07 21:42 | 30.21869 | -82.37355 | 33990 ft | 452 kts | 195° |
| 2026-05-07 21:43 | 30.15506 | -82.37617 | 33987 ft | 461 kts | 188° |
| 2026-05-07 21:43 | 30.09070 | -82.37415 | 33991 ft | 462 kts | 187° |
| 2026-05-07 21:44 | 30.02637 | -82.37108 | 34001 ft | 462 kts | 186° |
| 2026-05-07 21:44 | 29.96196 | -82.36766 | 34011 ft | 462 kts | 186° |
| 2026-05-07 21:45 | 29.89822 | -82.36415 | 34016 ft | 461 kts | 186° |
| 2026-05-07 21:45 | 29.83411 | -82.36060 | 34010 ft | 460 kts | 186° |
| 2026-05-07 21:46 | 29.77006 | -82.35708 | 34009 ft | 461 kts | 186° |
| 2026-05-07 21:46 | 29.70723 | -82.35346 | 33997 ft | 432 kts | 187° |
| 2026-05-07 21:47 | 29.67799 | -82.35161 | 34006 ft | 412 kts | 187° |
| 2026-05-07 21:47 | 29.64985 | -82.34998 | 33982 ft | 411 kts | 187° |
| 2026-05-07 21:47 | 29.62091 | -82.34860 | 33710 ft | 419 kts | 187° |
| 2026-05-07 21:47 | 29.59179 | -82.34716 | 33464 ft | 417 kts | 187° |
| 2026-05-07 21:48 | 29.56283 | -82.34564 | 32941 ft | 414 kts | 187° |
| 2026-05-07 21:48 | 29.53409 | -82.34408 | 32282 ft | 411 kts | 187° |
| 2026-05-07 21:48 | 29.50570 | -82.34252 | 31654 ft | 406 kts | 187° |
| 2026-05-07 21:48 | 29.47755 | -82.34096 | 31056 ft | 402 kts | 187° |
| 2026-05-07 21:49 | 29.44971 | -82.33941 | 30449 ft | 398 kts | 186° |
| 2026-05-07 21:49 | 29.42250 | -82.33746 | 29842 ft | 396 kts | 185° |
| 2026-05-07 21:49 | 29.39506 | -82.33489 | 29177 ft | 392 kts | 184° |
| 2026-05-07 21:49 | 29.36801 | -82.33205 | 28544 ft | 388 kts | 184° |
| 2026-05-07 21:50 | 29.34128 | -82.32908 | 27933 ft | 384 kts | 184° |
| 2026-05-07 21:50 | 29.31478 | -82.32604 | 27309 ft | 381 kts | 183° |
| 2026-05-07 21:50 | 29.28847 | -82.32298 | 26708 ft | 377 kts | 183° |
| 2026-05-07 21:50 | 29.26253 | -82.31995 | 26125 ft | 373 kts | 183° |
| 2026-05-07 21:51 | 29.23672 | -82.31691 | 25551 ft | 370 kts | 183° |
| 2026-05-07 21:51 | 29.21155 | -82.31394 | 24995 ft | 367 kts | 182° |
| 2026-05-07 21:51 | 29.18628 | -82.31096 | 24447 ft | 364 kts | 182° |
| 2026-05-07 21:51 | 29.16118 | -82.30799 | 23916 ft | 361 kts | 182° |
| 2026-05-07 21:52 | 29.13626 | -82.30506 | 23349 ft | 358 kts | 182° |
| 2026-05-07 21:52 | 29.11153 | -82.30213 | 22726 ft | 355 kts | 182° |
| 2026-05-07 21:52 | 29.08705 | -82.29922 | 22144 ft | 352 kts | 182° |
| 2026-05-07 21:52 | 29.06279 | -82.29635 | 21561 ft | 349 kts | 182° |
| 2026-05-07 21:53 | 29.03871 | -82.29349 | 20993 ft | 346 kts | 182° |
| 2026-05-07 21:53 | 29.01515 | -82.29071 | 20445 ft | 343 kts | 182° |
| 2026-05-07 21:53 | 28.99150 | -82.28792 | 19888 ft | 340 kts | 182° |
| 2026-05-07 21:53 | 28.96797 | -82.28514 | 19347 ft | 338 kts | 181° |
| 2026-05-07 21:54 | 28.94467 | -82.28239 | 18822 ft | 335 kts | 181° |
| 2026-05-07 21:54 | 28.92151 | -82.27965 | 18297 ft | 333 kts | 181° |
| 2026-05-07 21:54 | 28.89855 | -82.27695 | 17720 ft | 330 kts | 181° |
| 2026-05-07 21:54 | 28.87585 | -82.27428 | 17182 ft | 326 kts | 181° |
| 2026-05-07 21:55 | 28.85337 | -82.27164 | 16629 ft | 323 kts | 180° |
| 2026-05-07 21:55 | 28.83141 | -82.26905 | 16106 ft | 320 kts | 180° |
| 2026-05-07 21:55 | 28.80940 | -82.26645 | 15592 ft | 316 kts | 180° |
| 2026-05-07 21:55 | 28.78760 | -82.26386 | 15089 ft | 313 kts | 180° |
| 2026-05-07 21:56 | 28.76612 | -82.26321 | 14569 ft | 302 kts | 198° |
| 2026-05-07 21:56 | 28.74802 | -82.27329 | 14048 ft | 286 kts | 227° |
| 2026-05-07 21:56 | 28.73515 | -82.29029 | 13477 ft | 282 kts | 236° |
| 2026-05-07 21:56 | 28.72385 | -82.30847 | 12914 ft | 280 kts | 238° |
| 2026-05-07 21:57 | 28.71306 | -82.32684 | 12360 ft | 278 kts | 239° |
| 2026-05-07 21:57 | 28.70255 | -82.34530 | 11828 ft | 277 kts | 239° |
| 2026-05-07 21:57 | 28.69222 | -82.36371 | 11292 ft | 275 kts | 240° |
| 2026-05-07 21:57 | 28.68198 | -82.38208 | 10785 ft | 273 kts | 240° |
| 2026-05-07 21:58 | 28.67188 | -82.40030 | 10397 ft | 280 kts | 240° |
| 2026-05-07 21:58 | 28.66160 | -82.41886 | 10185 ft | 273 kts | 240° |
| 2026-05-07 21:58 | 28.65154 | -82.43698 | 10098 ft | 271 kts | 240° |
| 2026-05-07 21:58 | 28.64145 | -82.45522 | 10053 ft | 273 kts | 240° |
| 2026-05-07 21:59 | 28.63133 | -82.47349 | 10030 ft | 272 kts | 240° |
| 2026-05-07 21:59 | 28.62125 | -82.49171 | 10023 ft | 272 kts | 240° |
| 2026-05-07 21:59 | 28.61114 | -82.50999 | 10009 ft | 273 kts | 240° |
| 2026-05-07 21:59 | 28.60105 | -82.52820 | 10016 ft | 271 kts | 240° |
| 2026-05-07 22:00 | 28.59094 | -82.54644 | 10013 ft | 274 kts | 240° |
| 2026-05-07 22:00 | 28.58083 | -82.56470 | 10018 ft | 272 kts | 240° |
| 2026-05-07 22:00 | 28.57071 | -82.58288 | 10015 ft | 273 kts | 240° |
| 2026-05-07 22:00 | 28.56060 | -82.60112 | 10005 ft | 273 kts | 240° |
| 2026-05-07 22:01 | 28.54985 | -82.61855 | 10006 ft | 275 kts | 225° |
| 2026-05-07 22:01 | 28.53280 | -82.62885 | 10030 ft | 286 kts | 199° |
| 2026-05-07 22:01 | 28.51353 | -82.63433 | 10015 ft | 284 kts | 199° |
| 2026-05-07 22:01 | 28.49446 | -82.64053 | 10005 ft | 285 kts | 200° |
| 2026-05-07 22:02 | 28.47558 | -82.64705 | 10003 ft | 283 kts | 201° |
| 2026-05-07 22:02 | 28.45667 | -82.65364 | 9998 ft | 285 kts | 201° |
| 2026-05-07 22:02 | 28.43777 | -82.66023 | 9776 ft | 283 kts | 201° |
| 2026-05-07 22:02 | 28.41898 | -82.66676 | 9274 ft | 282 kts | 200° |
| 2026-05-07 22:03 | 28.40035 | -82.67324 | 8757 ft | 279 kts | 200° |
| 2026-05-07 22:03 | 28.38175 | -82.67963 | 8220 ft | 278 kts | 200° |
| 2026-05-07 22:03 | 28.36324 | -82.68595 | 7711 ft | 277 kts | 200° |
| 2026-05-07 22:03 | 28.34479 | -82.69222 | 7201 ft | 276 kts | 199° |
| 2026-05-07 22:04 | 28.32638 | -82.69842 | 6715 ft | 275 kts | 199° |
| 2026-05-07 22:04 | 28.30809 | -82.70456 | 6211 ft | 274 kts | 199° |
| 2026-05-07 22:04 | 28.29005 | -82.71060 | 5723 ft | 272 kts | 199° |
| 2026-05-07 22:04 | 28.27193 | -82.71665 | 5261 ft | 269 kts | 199° |
| 2026-05-07 22:05 | 28.25399 | -82.72263 | 4774 ft | 267 kts | 199° |
| 2026-05-07 22:05 | 28.23616 | -82.72855 | 4304 ft | 266 kts | 199° |
| 2026-05-07 22:05 | 28.21817 | -82.73302 | 3865 ft | 265 kts | 188° |
| 2026-05-07 22:05 | 28.19974 | -82.73379 | 3448 ft | 266 kts | 183° |
| 2026-05-07 22:06 | 28.18109 | -82.73344 | 3168 ft | 267 kts | 180° |
| 2026-05-07 22:06 | 28.16298 | -82.73147 | 2884 ft | 264 kts | 175° |
| 2026-05-07 22:06 | 28.14476 | -82.72862 | 2637 ft | 265 kts | 174° |
| 2026-05-07 22:06 | 28.12652 | -82.72561 | 2329 ft | 263 kts | 175° |
| 2026-05-07 22:07 | 28.10859 | -82.72264 | 2141 ft | 259 kts | 175° |
| 2026-05-07 22:07 | 28.09091 | -82.71970 | 1980 ft | 252 kts | 174° |
| 2026-05-07 22:07 | 28.07407 | -82.71691 | 1927 ft | 237 kts | 175° |
| 2026-05-07 22:07 | 28.05836 | -82.71422 | 1782 ft | 220 kts | 175° |
| 2026-05-07 22:08 | 28.04377 | -82.71188 | 1654 ft | 201 kts | 175° |
| 2026-05-07 22:08 | 28.03059 | -82.70962 | 1592 ft | 185 kts | 176° |
| 2026-05-07 22:08 | 28.01937 | -82.70774 | 1557 ft | 147 kts | 176° |
| 2026-05-07 22:08 | 28.00939 | -82.70614 | 1543 ft | 146 kts | 177° |
| 2026-05-07 22:09 | 27.99928 | -82.70465 | 1542 ft | 150 kts | 176° |
| 2026-05-07 22:09 | 27.98902 | -82.70283 | 1378 ft | 148 kts | 174° |
| 2026-05-07 22:09 | 27.97900 | -82.70079 | 1141 ft | 146 kts | 175° |
| 2026-05-07 22:09 | 27.96893 | -82.69894 | 972 ft | 145 kts | 175° |
| 2026-05-07 22:10 | 27.95868 | -82.69715 | 739 ft | 151 kts | 174° |
| 2026-05-07 22:10 | 27.94845 | -82.69535 | 485 ft | 149 kts | 174° |
| 2026-05-07 22:10 | 27.93805 | -82.69340 | 351 ft | 146 kts | 173° |
| 2026-05-07 22:10 | 27.92794 | -82.69155 | 172 ft | 151 kts | 173° |
| 2026-05-07 22:11 | 27.91782 | -82.68977 | 34 ft | 144 kts | 171° |
| 2026-05-07 22:11 | 27.90842 | -82.68808 | 24 ft | 113 kts | 171° |
| 2026-05-07 22:11 | 27.90320 | -82.68738 | 23 ft | 21 kts | 206° |
| 2026-05-07 22:11 | 27.90303 | -82.68848 | 24 ft | 15 kts | 288° |
| 2026-05-07 22:12 | 27.90393 | -82.68891 | 24 ft | 16 kts | 352° |
| 2026-05-07 22:12 | 27.90518 | -82.68911 | 27 ft | 20 kts | 352° |
| 2026-05-07 22:12 | 27.90625 | -82.68950 | 24 ft | 11 kts | 302° |
| 2026-05-07 22:12 | 27.90627 | -82.68981 | 24 ft | 5 kts | 263° |
| 2026-05-07 22:13 | 27.90625 | -82.69009 | 24 ft | 0 kts | 263° |